sensor_id;sensor_type;location;lat;lon;timestamp;P1;durP1;ratioP1;P2;durP2;ratioP2
72209;SDS011;60113;48.762;12.302;2024-02-04T00:00:00;3.78;;;2.72;;
72209;SDS011;60113;48.762;12.302;2024-02-04T00:02:27;3.22;;;2.55;;
72209;SDS011;60113;48.762;12.302;2024-02-04T00:04:53;4.00;;;2.65;;
72209;SDS011;60113;48.762;12.302;2024-02-04T00:07:20;6.03;;;2.80;;
72209;SDS011;60113;48.762;12.302;2024-02-04T00:09:47;2.67;;;2.40;;
72209;SDS011;60113;48.762;12.302;2024-02-04T00:12:14;3.65;;;2.55;;
72209;SDS011;60113;48.762;12.302;2024-02-04T00:14:39;3.08;;;2.42;;
72209;SDS011;60113;48.762;12.302;2024-02-04T00:17:06;3.42;;;2.55;;
72209;SDS011;60113;48.762;12.302;2024-02-04T00:19:32;3.58;;;2.97;;
72209;SDS011;60113;48.762;12.302;2024-02-04T00:21:57;4.38;;;2.70;;
72209;SDS011;60113;48.762;12.302;2024-02-04T00:24:23;3.35;;;2.67;;
72209;SDS011;60113;48.762;12.302;2024-02-04T00:26:49;3.50;;;2.45;;
72209;SDS011;60113;48.762;12.302;2024-02-04T00:29:16;6.80;;;2.40;;
72209;SDS011;60113;48.762;12.302;2024-02-04T00:31:42;4.07;;;2.70;;
72209;SDS011;60113;48.762;12.302;2024-02-04T00:34:08;4.07;;;2.50;;
72209;SDS011;60113;48.762;12.302;2024-02-04T00:36:33;2.97;;;2.50;;
72209;SDS011;60113;48.762;12.302;2024-02-04T00:38:59;2.80;;;2.40;;
72209;SDS011;60113;48.762;12.302;2024-02-04T00:41:25;3.72;;;2.60;;
72209;SDS011;60113;48.762;12.302;2024-02-04T00:43:50;3.58;;;2.28;;
72209;SDS011;60113;48.762;12.302;2024-02-04T00:46:17;3.78;;;2.50;;
72209;SDS011;60113;48.762;12.302;2024-02-04T00:48:43;3.03;;;2.58;;
72209;SDS011;60113;48.762;12.302;2024-02-04T00:51:09;3.20;;;2.70;;
72209;SDS011;60113;48.762;12.302;2024-02-04T00:53:34;4.38;;;2.55;;
72209;SDS011;60113;48.762;12.302;2024-02-04T00:56:01;3.47;;;2.25;;
72209;SDS011;60113;48.762;12.302;2024-02-04T00:58:28;2.42;;;2.00;;
72209;SDS011;60113;48.762;12.302;2024-02-04T01:00:56;5.35;;;2.42;;
72209;SDS011;60113;48.762;12.302;2024-02-04T01:03:22;3.97;;;2.40;;
72209;SDS011;60113;48.762;12.302;2024-02-04T01:05:50;2.60;;;1.90;;
72209;SDS011;60113;48.762;12.302;2024-02-04T01:08:16;3.28;;;2.20;;
72209;SDS011;60113;48.762;12.302;2024-02-04T01:10:41;3.47;;;2.35;;
72209;SDS011;60113;48.762;12.302;2024-02-04T01:13:07;3.33;;;2.30;;
72209;SDS011;60113;48.762;12.302;2024-02-04T01:15:32;3.45;;;2.30;;
72209;SDS011;60113;48.762;12.302;2024-02-04T01:17:58;2.65;;;1.90;;
72209;SDS011;60113;48.762;12.302;2024-02-04T01:20:25;2.75;;;2.20;;
72209;SDS011;60113;48.762;12.302;2024-02-04T01:22:52;2.40;;;1.92;;
72209;SDS011;60113;48.762;12.302;2024-02-04T01:25:17;2.33;;;2.00;;
72209;SDS011;60113;48.762;12.302;2024-02-04T01:27:44;4.75;;;2.50;;
72209;SDS011;60113;48.762;12.302;2024-02-04T01:30:10;3.22;;;2.15;;
72209;SDS011;60113;48.762;12.302;2024-02-04T01:32:36;3.25;;;2.50;;
72209;SDS011;60113;48.762;12.302;2024-02-04T01:35:02;5.55;;;3.13;;
72209;SDS011;60113;48.762;12.302;2024-02-04T01:37:28;4.55;;;2.70;;
72209;SDS011;60113;48.762;12.302;2024-02-04T01:39:54;4.25;;;2.97;;
72209;SDS011;60113;48.762;12.302;2024-02-04T01:42:21;5.70;;;3.13;;
72209;SDS011;60113;48.762;12.302;2024-02-04T01:44:46;4.13;;;2.80;;
72209;SDS011;60113;48.762;12.302;2024-02-04T01:47:12;4.32;;;2.90;;
72209;SDS011;60113;48.762;12.302;2024-02-04T01:49:39;4.63;;;3.08;;
72209;SDS011;60113;48.762;12.302;2024-02-04T01:52:05;4.43;;;3.35;;
72209;SDS011;60113;48.762;12.302;2024-02-04T01:54:32;4.40;;;3.20;;
72209;SDS011;60113;48.762;12.302;2024-02-04T01:56:58;5.05;;;3.05;;
72209;SDS011;60113;48.762;12.302;2024-02-04T01:59:29;3.90;;;2.95;;
72209;SDS011;60113;48.762;12.302;2024-02-04T02:02:01;3.63;;;3.05;;
72209;SDS011;60113;48.762;12.302;2024-02-04T02:04:28;4.68;;;3.38;;
72209;SDS011;60113;48.762;12.302;2024-02-04T02:06:55;4.65;;;3.35;;
72209;SDS011;60113;48.762;12.302;2024-02-04T02:09:21;4.55;;;3.55;;
72209;SDS011;60113;48.762;12.302;2024-02-04T02:14:30;4.55;;;3.20;;
72209;SDS011;60113;48.762;12.302;2024-02-04T02:17:00;3.95;;;3.13;;
72209;SDS011;60113;48.762;12.302;2024-02-04T02:19:40;3.95;;;2.97;;
72209;SDS011;60113;48.762;12.302;2024-02-04T02:22:18;4.80;;;3.47;;
72209;SDS011;60113;48.762;12.302;2024-02-04T02:24:51;3.80;;;3.30;;
72209;SDS011;60113;48.762;12.302;2024-02-04T02:27:19;4.22;;;2.90;;
72209;SDS011;60113;48.762;12.302;2024-02-04T02:29:45;4.00;;;3.25;;
72209;SDS011;60113;48.762;12.302;2024-02-04T02:32:12;4.90;;;3.28;;
72209;SDS011;60113;48.762;12.302;2024-02-04T02:34:38;4.65;;;3.08;;
72209;SDS011;60113;48.762;12.302;2024-02-04T02:39:58;5.90;;;3.22;;
72209;SDS011;60113;48.762;12.302;2024-02-04T02:42:29;5.45;;;3.40;;
72209;SDS011;60113;48.762;12.302;2024-02-04T02:44:57;4.13;;;2.80;;
72209;SDS011;60113;48.762;12.302;2024-02-04T02:47:25;3.20;;;2.60;;
72209;SDS011;60113;48.762;12.302;2024-02-04T02:49:53;3.83;;;3.10;;
72209;SDS011;60113;48.762;12.302;2024-02-04T02:52:20;5.20;;;2.67;;
72209;SDS011;60113;48.762;12.302;2024-02-04T02:54:48;3.40;;;2.67;;
72209;SDS011;60113;48.762;12.302;2024-02-04T02:57:15;2.70;;;2.28;;
72209;SDS011;60113;48.762;12.302;2024-02-04T02:59:40;2.88;;;2.30;;
72209;SDS011;60113;48.762;12.302;2024-02-04T03:02:06;3.08;;;2.47;;
72209;SDS011;60113;48.762;12.302;2024-02-04T03:04:31;3.10;;;2.30;;
72209;SDS011;60113;48.762;12.302;2024-02-04T03:06:57;3.15;;;2.50;;
72209;SDS011;60113;48.762;12.302;2024-02-04T03:09:22;4.35;;;2.80;;
72209;SDS011;60113;48.762;12.302;2024-02-04T03:11:48;2.80;;;2.38;;
72209;SDS011;60113;48.762;12.302;2024-02-04T03:14:16;3.70;;;2.70;;
72209;SDS011;60113;48.762;12.302;2024-02-04T03:16:45;3.50;;;2.45;;
72209;SDS011;60113;48.762;12.302;2024-02-04T03:19:10;3.42;;;2.30;;
72209;SDS011;60113;48.762;12.302;2024-02-04T03:21:36;3.63;;;2.72;;
72209;SDS011;60113;48.762;12.302;2024-02-04T03:24:02;5.93;;;2.50;;
72209;SDS011;60113;48.762;12.302;2024-02-04T03:26:28;4.57;;;2.70;;
72209;SDS011;60113;48.762;12.302;2024-02-04T03:28:53;2.85;;;2.47;;
72209;SDS011;60113;48.762;12.302;2024-02-04T03:31:21;3.47;;;2.60;;
72209;SDS011;60113;48.762;12.302;2024-02-04T03:33:50;3.85;;;2.42;;
72209;SDS011;60113;48.762;12.302;2024-02-04T03:36:18;3.03;;;2.40;;
72209;SDS011;60113;48.762;12.302;2024-02-04T03:38:45;3.25;;;2.53;;
72209;SDS011;60113;48.762;12.302;2024-02-04T03:41:10;3.50;;;2.47;;
72209;SDS011;60113;48.762;12.302;2024-02-04T03:43:36;3.42;;;2.50;;
72209;SDS011;60113;48.762;12.302;2024-02-04T03:46:02;3.95;;;2.50;;
72209;SDS011;60113;48.762;12.302;2024-02-04T03:48:27;3.85;;;2.80;;
72209;SDS011;60113;48.762;12.302;2024-02-04T03:50:53;5.38;;;2.58;;
72209;SDS011;60113;48.762;12.302;2024-02-04T03:53:19;3.97;;;2.58;;
72209;SDS011;60113;48.762;12.302;2024-02-04T03:55:46;3.78;;;2.85;;
72209;SDS011;60113;48.762;12.302;2024-02-04T03:58:11;3.90;;;2.60;;
72209;SDS011;60113;48.762;12.302;2024-02-04T04:00:38;3.30;;;2.42;;
72209;SDS011;60113;48.762;12.302;2024-02-04T04:03:05;4.70;;;2.80;;
72209;SDS011;60113;48.762;12.302;2024-02-04T04:05:30;3.80;;;2.75;;
72209;SDS011;60113;48.762;12.302;2024-02-04T04:07:56;5.45;;;2.70;;
72209;SDS011;60113;48.762;12.302;2024-02-04T04:10:22;3.55;;;2.78;;
72209;SDS011;60113;48.762;12.302;2024-02-04T04:12:48;3.13;;;2.58;;
72209;SDS011;60113;48.762;12.302;2024-02-04T04:15:13;2.50;;;2.20;;
72209;SDS011;60113;48.762;12.302;2024-02-04T04:17:39;2.67;;;2.13;;
72209;SDS011;60113;48.762;12.302;2024-02-04T04:20:06;4.03;;;2.80;;
72209;SDS011;60113;48.762;12.302;2024-02-04T04:22:32;4.38;;;2.83;;
72209;SDS011;60113;48.762;12.302;2024-02-04T04:24:58;4.05;;;3.10;;
72209;SDS011;60113;48.762;12.302;2024-02-04T04:27:24;3.95;;;3.20;;
72209;SDS011;60113;48.762;12.302;2024-02-04T04:29:50;5.63;;;2.90;;
72209;SDS011;60113;48.762;12.302;2024-02-04T04:32:17;3.58;;;3.10;;
72209;SDS011;60113;48.762;12.302;2024-02-04T04:34:42;4.00;;;2.72;;
72209;SDS011;60113;48.762;12.302;2024-02-04T04:37:08;4.30;;;2.97;;
72209;SDS011;60113;48.762;12.302;2024-02-04T04:39:33;5.00;;;3.03;;
72209;SDS011;60113;48.762;12.302;2024-02-04T04:41:59;5.28;;;3.58;;
72209;SDS011;60113;48.762;12.302;2024-02-04T04:44:24;5.80;;;3.08;;
72209;SDS011;60113;48.762;12.302;2024-02-04T04:46:50;3.42;;;2.58;;
72209;SDS011;60113;48.762;12.302;2024-02-04T04:49:16;3.85;;;3.05;;
72209;SDS011;60113;48.762;12.302;2024-02-04T04:51:46;4.47;;;3.05;;
72209;SDS011;60113;48.762;12.302;2024-02-04T04:54:11;4.05;;;3.40;;
72209;SDS011;60113;48.762;12.302;2024-02-04T04:56:40;4.55;;;3.03;;
72209;SDS011;60113;48.762;12.302;2024-02-04T04:59:07;3.83;;;3.00;;
72209;SDS011;60113;48.762;12.302;2024-02-04T05:01:33;3.53;;;2.97;;
72209;SDS011;60113;48.762;12.302;2024-02-04T05:03:58;4.07;;;2.75;;
72209;SDS011;60113;48.762;12.302;2024-02-04T05:06:24;3.42;;;2.97;;
72209;SDS011;60113;48.762;12.302;2024-02-04T05:08:49;4.55;;;3.00;;
72209;SDS011;60113;48.762;12.302;2024-02-04T05:11:17;4.72;;;2.83;;
72209;SDS011;60113;48.762;12.302;2024-02-04T05:13:44;3.90;;;2.60;;
72209;SDS011;60113;48.762;12.302;2024-02-04T05:16:11;3.67;;;2.80;;
72209;SDS011;60113;48.762;12.302;2024-02-04T05:18:36;3.10;;;2.50;;
72209;SDS011;60113;48.762;12.302;2024-02-04T05:21:02;3.15;;;2.38;;
72209;SDS011;60113;48.762;12.302;2024-02-04T05:23:28;3.17;;;2.40;;
72209;SDS011;60113;48.762;12.302;2024-02-04T05:25:53;3.17;;;2.55;;
72209;SDS011;60113;48.762;12.302;2024-02-04T05:28:19;2.80;;;2.20;;
72209;SDS011;60113;48.762;12.302;2024-02-04T05:30:44;3.70;;;3.10;;
72209;SDS011;60113;48.762;12.302;2024-02-04T05:33:13;3.42;;;2.70;;
72209;SDS011;60113;48.762;12.302;2024-02-04T05:35:39;3.33;;;2.28;;
72209;SDS011;60113;48.762;12.302;2024-02-04T05:38:09;3.75;;;2.80;;
72209;SDS011;60113;48.762;12.302;2024-02-04T05:40:35;2.92;;;2.50;;
72209;SDS011;60113;48.762;12.302;2024-02-04T05:43:02;2.47;;;2.28;;
72209;SDS011;60113;48.762;12.302;2024-02-04T05:45:33;2.72;;;2.20;;
72209;SDS011;60113;48.762;12.302;2024-02-04T05:47:59;2.78;;;2.30;;
72209;SDS011;60113;48.762;12.302;2024-02-04T05:50:27;4.07;;;2.30;;
72209;SDS011;60113;48.762;12.302;2024-02-04T05:52:52;4.22;;;2.42;;
72209;SDS011;60113;48.762;12.302;2024-02-04T05:55:18;3.10;;;2.38;;
72209;SDS011;60113;48.762;12.302;2024-02-04T05:57:44;3.00;;;2.28;;
72209;SDS011;60113;48.762;12.302;2024-02-04T06:00:11;5.43;;;2.95;;
72209;SDS011;60113;48.762;12.302;2024-02-04T06:02:38;2.75;;;2.10;;
72209;SDS011;60113;48.762;12.302;2024-02-04T06:05:05;3.03;;;2.20;;
72209;SDS011;60113;48.762;12.302;2024-02-04T06:07:31;2.55;;;2.20;;
72209;SDS011;60113;48.762;12.302;2024-02-04T06:09:56;3.70;;;2.30;;
72209;SDS011;60113;48.762;12.302;2024-02-04T06:12:23;5.40;;;2.33;;
72209;SDS011;60113;48.762;12.302;2024-02-04T06:14:49;3.85;;;2.53;;
72209;SDS011;60113;48.762;12.302;2024-02-04T06:17:15;2.80;;;2.45;;
72209;SDS011;60113;48.762;12.302;2024-02-04T06:19:40;4.20;;;2.72;;
72209;SDS011;60113;48.762;12.302;2024-02-04T06:22:06;3.08;;;2.58;;
72209;SDS011;60113;48.762;12.302;2024-02-04T06:24:31;3.05;;;2.60;;
72209;SDS011;60113;48.762;12.302;2024-02-04T06:26:57;3.38;;;2.45;;
72209;SDS011;60113;48.762;12.302;2024-02-04T06:29:23;4.00;;;2.80;;
72209;SDS011;60113;48.762;12.302;2024-02-04T06:31:48;4.25;;;3.20;;
72209;SDS011;60113;48.762;12.302;2024-02-04T06:34:15;4.28;;;3.35;;
72209;SDS011;60113;48.762;12.302;2024-02-04T06:36:44;3.55;;;3.10;;
72209;SDS011;60113;48.762;12.302;2024-02-04T06:39:10;4.45;;;2.85;;
72209;SDS011;60113;48.762;12.302;2024-02-04T06:41:36;3.40;;;2.92;;
72209;SDS011;60113;48.762;12.302;2024-02-04T06:44:03;3.97;;;2.97;;
72209;SDS011;60113;48.762;12.302;2024-02-04T06:46:29;3.63;;;2.90;;
72209;SDS011;60113;48.762;12.302;2024-02-04T06:48:54;4.35;;;3.10;;
72209;SDS011;60113;48.762;12.302;2024-02-04T06:51:20;3.72;;;2.95;;
72209;SDS011;60113;48.762;12.302;2024-02-04T06:53:46;4.35;;;3.05;;
72209;SDS011;60113;48.762;12.302;2024-02-04T06:56:11;3.10;;;2.67;;
72209;SDS011;60113;48.762;12.302;2024-02-04T06:58:37;3.10;;;2.42;;
72209;SDS011;60113;48.762;12.302;2024-02-04T07:01:03;4.30;;;3.30;;
72209;SDS011;60113;48.762;12.302;2024-02-04T07:03:30;3.92;;;3.30;;
72209;SDS011;60113;48.762;12.302;2024-02-04T07:05:57;5.90;;;3.35;;
72209;SDS011;60113;48.762;12.302;2024-02-04T07:08:24;7.43;;;4.25;;
72209;SDS011;60113;48.762;12.302;2024-02-04T07:10:50;5.78;;;3.70;;
72209;SDS011;60113;48.762;12.302;2024-02-04T07:13:16;4.75;;;3.63;;
72209;SDS011;60113;48.762;12.302;2024-02-04T07:15:42;4.93;;;3.47;;
72209;SDS011;60113;48.762;12.302;2024-02-04T07:18:08;4.93;;;3.60;;
72209;SDS011;60113;48.762;12.302;2024-02-04T07:20:35;6.43;;;5.38;;
72209;SDS011;60113;48.762;12.302;2024-02-04T07:23:02;4.18;;;3.38;;
72209;SDS011;60113;48.762;12.302;2024-02-04T07:25:27;6.38;;;4.40;;
72209;SDS011;60113;48.762;12.302;2024-02-04T07:27:53;6.35;;;3.70;;
72209;SDS011;60113;48.762;12.302;2024-02-04T07:30:19;5.70;;;3.70;;
72209;SDS011;60113;48.762;12.302;2024-02-04T07:32:46;5.72;;;3.90;;
72209;SDS011;60113;48.762;12.302;2024-02-04T07:35:12;5.18;;;3.88;;
72209;SDS011;60113;48.762;12.302;2024-02-04T07:37:38;6.18;;;3.90;;
72209;SDS011;60113;48.762;12.302;2024-02-04T07:40:04;3.63;;;3.17;;
72209;SDS011;60113;48.762;12.302;2024-02-04T07:42:33;4.35;;;3.50;;
72209;SDS011;60113;48.762;12.302;2024-02-04T07:44:58;4.35;;;3.20;;
72209;SDS011;60113;48.762;12.302;2024-02-04T07:47:24;4.20;;;3.15;;
72209;SDS011;60113;48.762;12.302;2024-02-04T07:49:50;3.25;;;2.63;;
72209;SDS011;60113;48.762;12.302;2024-02-04T07:52:15;3.85;;;2.88;;
72209;SDS011;60113;48.762;12.302;2024-02-04T07:54:41;4.78;;;2.88;;
72209;SDS011;60113;48.762;12.302;2024-02-04T07:57:08;5.53;;;2.53;;
72209;SDS011;60113;48.762;12.302;2024-02-04T07:59:34;3.75;;;2.72;;
72209;SDS011;60113;48.762;12.302;2024-02-04T08:02:02;4.85;;;2.63;;
72209;SDS011;60113;48.762;12.302;2024-02-04T08:04:28;2.22;;;1.90;;
72209;SDS011;60113;48.762;12.302;2024-02-04T08:06:54;3.60;;;2.83;;
72209;SDS011;60113;48.762;12.302;2024-02-04T08:09:20;3.15;;;2.40;;
72209;SDS011;60113;48.762;12.302;2024-02-04T08:11:45;2.55;;;2.00;;
72209;SDS011;60113;48.762;12.302;2024-02-04T08:14:11;2.85;;;2.10;;
72209;SDS011;60113;48.762;12.302;2024-02-04T08:16:39;2.75;;;1.98;;
72209;SDS011;60113;48.762;12.302;2024-02-04T08:19:04;3.25;;;2.10;;
72209;SDS011;60113;48.762;12.302;2024-02-04T08:21:31;3.90;;;2.10;;
72209;SDS011;60113;48.762;12.302;2024-02-04T08:23:58;3.47;;;1.90;;
72209;SDS011;60113;48.762;12.302;2024-02-04T08:26:24;3.33;;;2.00;;
72209;SDS011;60113;48.762;12.302;2024-02-04T08:28:50;3.28;;;2.33;;
72209;SDS011;60113;48.762;12.302;2024-02-04T08:31:15;2.70;;;2.17;;
72209;SDS011;60113;48.762;12.302;2024-02-04T08:33:41;2.83;;;2.10;;
72209;SDS011;60113;48.762;12.302;2024-02-04T08:36:07;3.42;;;2.08;;
72209;SDS011;60113;48.762;12.302;2024-02-04T08:38:36;1.95;;;1.35;;
72209;SDS011;60113;48.762;12.302;2024-02-04T08:41:03;2.90;;;2.00;;
72209;SDS011;60113;48.762;12.302;2024-02-04T08:43:28;1.65;;;1.42;;
72209;SDS011;60113;48.762;12.302;2024-02-04T08:45:54;2.83;;;2.13;;
72209;SDS011;60113;48.762;12.302;2024-02-04T08:48:19;1.98;;;1.52;;
72209;SDS011;60113;48.762;12.302;2024-02-04T08:50:45;3.05;;;1.60;;
72209;SDS011;60113;48.762;12.302;2024-02-04T08:53:12;2.90;;;1.60;;
72209;SDS011;60113;48.762;12.302;2024-02-04T08:55:37;1.73;;;1.40;;
72209;SDS011;60113;48.762;12.302;2024-02-04T08:58:04;2.20;;;1.40;;
72209;SDS011;60113;48.762;12.302;2024-02-04T09:00:29;2.08;;;1.60;;
72209;SDS011;60113;48.762;12.302;2024-02-04T09:02:54;5.13;;;3.47;;
72209;SDS011;60113;48.762;12.302;2024-02-04T09:05:21;2.03;;;1.60;;
72209;SDS011;60113;48.762;12.302;2024-02-04T09:07:47;2.00;;;1.60;;
72209;SDS011;60113;48.762;12.302;2024-02-04T09:10:13;2.40;;;1.80;;
72209;SDS011;60113;48.762;12.302;2024-02-04T09:12:38;2.20;;;1.40;;
72209;SDS011;60113;48.762;12.302;2024-02-04T09:15:04;2.20;;;1.60;;
72209;SDS011;60113;48.762;12.302;2024-02-04T09:17:30;2.28;;;1.60;;
72209;SDS011;60113;48.762;12.302;2024-02-04T09:19:58;1.90;;;1.35;;
72209;SDS011;60113;48.762;12.302;2024-02-04T09:22:24;1.90;;;1.30;;
72209;SDS011;60113;48.762;12.302;2024-02-04T09:24:50;2.00;;;1.42;;
72209;SDS011;60113;48.762;12.302;2024-02-04T09:27:16;1.80;;;1.52;;
72209;SDS011;60113;48.762;12.302;2024-02-04T09:29:41;2.63;;;1.40;;
72209;SDS011;60113;48.762;12.302;2024-02-04T09:32:06;2.08;;;1.70;;
72209;SDS011;60113;48.762;12.302;2024-02-04T09:34:32;1.92;;;1.35;;
72209;SDS011;60113;48.762;12.302;2024-02-04T09:36:58;2.42;;;1.50;;
72209;SDS011;60113;48.762;12.302;2024-02-04T09:39:23;4.63;;;1.98;;
72209;SDS011;60113;48.762;12.302;2024-02-04T09:41:49;3.45;;;1.60;;
72209;SDS011;60113;48.762;12.302;2024-02-04T09:44:15;2.20;;;1.75;;
72209;SDS011;60113;48.762;12.302;2024-02-04T09:46:42;1.40;;;1.20;;
72209;SDS011;60113;48.762;12.302;2024-02-04T09:49:08;1.85;;;1.60;;
72209;SDS011;60113;48.762;12.302;2024-02-04T09:51:34;1.88;;;1.30;;
72209;SDS011;60113;48.762;12.302;2024-02-04T09:54:01;2.45;;;1.50;;
72209;SDS011;60113;48.762;12.302;2024-02-04T09:56:32;4.82;;;1.65;;
72209;SDS011;60113;48.762;12.302;2024-02-04T09:59:01;3.30;;;2.00;;
72209;SDS011;60113;48.762;12.302;2024-02-04T10:01:26;2.60;;;1.90;;
72209;SDS011;60113;48.762;12.302;2024-02-04T10:03:52;2.50;;;1.80;;
72209;SDS011;60113;48.762;12.302;2024-02-04T10:06:18;2.08;;;1.67;;
72209;SDS011;60113;48.762;12.302;2024-02-04T10:08:44;1.42;;;1.23;;
72209;SDS011;60113;48.762;12.302;2024-02-04T10:11:11;2.58;;;1.70;;
72209;SDS011;60113;48.762;12.302;2024-02-04T10:13:46;3.35;;;1.80;;
72209;SDS011;60113;48.762;12.302;2024-02-04T10:16:13;4.60;;;1.60;;
72209;SDS011;60113;48.762;12.302;2024-02-04T10:18:43;2.63;;;1.60;;
72209;SDS011;60113;48.762;12.302;2024-02-04T10:23:46;4.50;;;1.60;;
72209;SDS011;60113;48.762;12.302;2024-02-04T10:26:12;5.57;;;4.03;;
72209;SDS011;60113;48.762;12.302;2024-02-04T10:28:38;1.60;;;1.30;;
72209;SDS011;60113;48.762;12.302;2024-02-04T10:31:13;2.70;;;1.33;;
72209;SDS011;60113;48.762;12.302;2024-02-04T10:33:38;2.10;;;1.50;;
72209;SDS011;60113;48.762;12.302;2024-02-04T10:36:04;3.05;;;1.60;;
72209;SDS011;60113;48.762;12.302;2024-02-04T10:38:31;2.97;;;1.42;;
72209;SDS011;60113;48.762;12.302;2024-02-04T10:40:59;2.13;;;1.13;;
72209;SDS011;60113;48.762;12.302;2024-02-04T10:43:33;1.23;;;1.02;;
72209;SDS011;60113;48.762;12.302;2024-02-04T10:46:09;1.40;;;0.98;;
72209;SDS011;60113;48.762;12.302;2024-02-04T10:48:38;2.55;;;1.52;;
72209;SDS011;60113;48.762;12.302;2024-02-04T10:51:15;2.83;;;1.90;;
72209;SDS011;60113;48.762;12.302;2024-02-04T10:53:42;2.03;;;1.43;;
72209;SDS011;60113;48.762;12.302;2024-02-04T10:56:13;1.63;;;1.20;;
72209;SDS011;60113;48.762;12.302;2024-02-04T10:58:45;2.25;;;1.67;;
72209;SDS011;60113;48.762;12.302;2024-02-04T11:01:13;2.30;;;1.08;;
72209;SDS011;60113;48.762;12.302;2024-02-04T11:03:39;2.45;;;1.50;;
72209;SDS011;60113;48.762;12.302;2024-02-04T11:06:09;1.30;;;1.10;;
72209;SDS011;60113;48.762;12.302;2024-02-04T11:08:37;2.53;;;1.30;;
72209;SDS011;60113;48.762;12.302;2024-02-04T11:11:03;1.58;;;1.02;;
72209;SDS011;60113;48.762;12.302;2024-02-04T11:13:29;1.00;;;0.80;;
72209;SDS011;60113;48.762;12.302;2024-02-04T11:15:56;3.15;;;1.10;;
72209;SDS011;60113;48.762;12.302;2024-02-04T11:18:40;3.67;;;1.20;;
72209;SDS011;60113;48.762;12.302;2024-02-04T11:27:22;0.82;;;0.77;;
72209;SDS011;60113;48.762;12.302;2024-02-04T11:29:52;1.30;;;0.90;;
72209;SDS011;60113;48.762;12.302;2024-02-04T11:32:18;2.83;;;1.08;;
72209;SDS011;60113;48.762;12.302;2024-02-04T11:34:44;3.50;;;1.10;;
72209;SDS011;60113;48.762;12.302;2024-02-04T11:37:15;1.95;;;1.10;;
72209;SDS011;60113;48.762;12.302;2024-02-04T11:39:49;1.40;;;0.93;;
72209;SDS011;60113;48.762;12.302;2024-02-04T11:42:16;1.35;;;0.85;;
72209;SDS011;60113;48.762;12.302;2024-02-04T11:44:43;1.42;;;0.90;;
72209;SDS011;60113;48.762;12.302;2024-02-04T11:47:10;3.08;;;1.20;;
72209;SDS011;60113;48.762;12.302;2024-02-04T11:49:36;2.05;;;1.05;;
72209;SDS011;60113;48.762;12.302;2024-02-04T11:52:01;1.25;;;1.00;;
72209;SDS011;60113;48.762;12.302;2024-02-04T11:54:27;1.52;;;1.13;;
72209;SDS011;60113;48.762;12.302;2024-02-04T11:56:53;1.63;;;1.00;;
72209;SDS011;60113;48.762;12.302;2024-02-04T11:59:20;3.50;;;1.05;;
72209;SDS011;60113;48.762;12.302;2024-02-04T12:01:53;1.30;;;1.10;;
72209;SDS011;60113;48.762;12.302;2024-02-04T12:04:23;1.15;;;0.80;;
72209;SDS011;60113;48.762;12.302;2024-02-04T12:06:53;2.03;;;0.90;;
72209;SDS011;60113;48.762;12.302;2024-02-04T12:09:19;2.00;;;1.02;;
72209;SDS011;60113;48.762;12.302;2024-02-04T12:11:45;1.58;;;0.80;;
72209;SDS011;60113;48.762;12.302;2024-02-04T12:14:13;1.45;;;1.10;;
72209;SDS011;60113;48.762;12.302;2024-02-04T12:16:40;1.20;;;1.00;;
72209;SDS011;60113;48.762;12.302;2024-02-04T12:19:09;2.13;;;1.00;;
72209;SDS011;60113;48.762;12.302;2024-02-04T12:21:36;1.23;;;1.00;;
72209;SDS011;60113;48.762;12.302;2024-02-04T12:24:02;1.13;;;0.90;;
72209;SDS011;60113;48.762;12.302;2024-02-04T12:26:48;3.58;;;1.83;;
72209;SDS011;60113;48.762;12.302;2024-02-04T12:29:26;2.00;;;1.45;;
72209;SDS011;60113;48.762;12.302;2024-02-04T12:32:02;2.85;;;1.75;;
72209;SDS011;60113;48.762;12.302;2024-02-04T12:34:28;1.63;;;1.20;;
72209;SDS011;60113;48.762;12.302;2024-02-04T12:36:58;1.67;;;1.10;;
72209;SDS011;60113;48.762;12.302;2024-02-04T12:39:28;3.17;;;1.25;;
72209;SDS011;60113;48.762;12.302;2024-02-04T12:41:54;1.63;;;1.10;;
72209;SDS011;60113;48.762;12.302;2024-02-04T12:44:21;2.28;;;1.00;;
72209;SDS011;60113;48.762;12.302;2024-02-04T12:46:50;0.90;;;0.82;;
72209;SDS011;60113;48.762;12.302;2024-02-04T12:49:18;1.27;;;0.98;;
72209;SDS011;60113;48.762;12.302;2024-02-04T12:51:45;1.73;;;1.15;;
72209;SDS011;60113;48.762;12.302;2024-02-04T12:54:13;2.95;;;1.20;;
72209;SDS011;60113;48.762;12.302;2024-02-04T12:56:40;1.95;;;1.10;;
72209;SDS011;60113;48.762;12.302;2024-02-04T13:01:58;1.48;;;1.08;;
72209;SDS011;60113;48.762;12.302;2024-02-04T13:04:32;1.05;;;0.95;;
72209;SDS011;60113;48.762;12.302;2024-02-04T13:07:07;1.55;;;1.00;;
72209;SDS011;60113;48.762;12.302;2024-02-04T13:09:38;1.75;;;1.00;;
72209;SDS011;60113;48.762;12.302;2024-02-04T13:12:08;1.02;;;0.80;;
72209;SDS011;60113;48.762;12.302;2024-02-04T13:14:38;1.00;;;0.80;;
72209;SDS011;60113;48.762;12.302;2024-02-04T13:17:04;3.75;;;1.30;;
72209;SDS011;60113;48.762;12.302;2024-02-04T13:19:32;1.13;;;0.93;;
72209;SDS011;60113;48.762;12.302;2024-02-04T13:22:00;3.17;;;1.02;;
72209;SDS011;60113;48.762;12.302;2024-02-04T13:24:26;6.30;;;1.63;;
72209;SDS011;60113;48.762;12.302;2024-02-04T13:26:51;1.63;;;1.00;;
72209;SDS011;60113;48.762;12.302;2024-02-04T13:29:17;1.30;;;0.88;;
72209;SDS011;60113;48.762;12.302;2024-02-04T13:31:42;1.85;;;0.90;;
72209;SDS011;60113;48.762;12.302;2024-02-04T13:34:08;1.42;;;1.00;;
72209;SDS011;60113;48.762;12.302;2024-02-04T13:36:34;1.05;;;0.90;;
72209;SDS011;60113;48.762;12.302;2024-02-04T13:38:59;1.10;;;0.90;;
72209;SDS011;60113;48.762;12.302;2024-02-04T13:41:25;2.25;;;0.82;;
72209;SDS011;60113;48.762;12.302;2024-02-04T13:43:50;0.98;;;0.85;;
72209;SDS011;60113;48.762;12.302;2024-02-04T13:46:16;1.30;;;1.10;;
72209;SDS011;60113;48.762;12.302;2024-02-04T13:48:41;1.05;;;0.80;;
72209;SDS011;60113;48.762;12.302;2024-02-04T13:51:07;2.13;;;1.10;;
72209;SDS011;60113;48.762;12.302;2024-02-04T13:53:33;3.20;;;1.70;;
72209;SDS011;60113;48.762;12.302;2024-02-04T13:56:01;6.57;;;3.10;;
72209;SDS011;60113;48.762;12.302;2024-02-04T13:58:27;6.35;;;2.95;;
72209;SDS011;60113;48.762;12.302;2024-02-04T14:00:53;1.25;;;1.08;;
72209;SDS011;60113;48.762;12.302;2024-02-04T14:03:19;1.80;;;1.20;;
72209;SDS011;60113;48.762;12.302;2024-02-04T14:05:46;2.58;;;0.98;;
72209;SDS011;60113;48.762;12.302;2024-02-04T14:08:11;2.50;;;1.05;;
72209;SDS011;60113;48.762;12.302;2024-02-04T14:10:37;1.50;;;0.90;;
72209;SDS011;60113;48.762;12.302;2024-02-04T14:13:03;1.80;;;1.05;;
72209;SDS011;60113;48.762;12.302;2024-02-04T14:15:30;1.88;;;0.85;;
72209;SDS011;60113;48.762;12.302;2024-02-04T14:17:56;0.88;;;0.73;;
72209;SDS011;60113;48.762;12.302;2024-02-04T14:20:22;1.08;;;0.88;;
72209;SDS011;60113;48.762;12.302;2024-02-04T14:22:49;1.60;;;0.98;;
72209;SDS011;60113;48.762;12.302;2024-02-04T14:25:17;1.23;;;0.80;;
72209;SDS011;60113;48.762;12.302;2024-02-04T14:27:42;3.97;;;1.00;;
72209;SDS011;60113;48.762;12.302;2024-02-04T14:30:08;1.60;;;1.10;;
72209;SDS011;60113;48.762;12.302;2024-02-04T14:32:34;2.88;;;1.02;;
72209;SDS011;60113;48.762;12.302;2024-02-04T14:34:59;1.75;;;0.88;;
72209;SDS011;60113;48.762;12.302;2024-02-04T14:37:25;1.65;;;0.80;;
72209;SDS011;60113;48.762;12.302;2024-02-04T14:39:50;2.63;;;0.90;;
72209;SDS011;60113;48.762;12.302;2024-02-04T14:42:16;2.47;;;0.90;;
72209;SDS011;60113;48.762;12.302;2024-02-04T14:44:44;1.70;;;0.85;;
72209;SDS011;60113;48.762;12.302;2024-02-04T14:47:10;2.53;;;0.93;;